Terminal Aerodrome Forecast
Issued by NWS Tuscon, AZ

Home | Current Version | Previous Version | Text Only | Print | Product List | Glossary On
Versions: 1 2 3 4 5 6 7 8 9 10 11 12
000
FTUS45 KTWC 300542
TAFDUG
TAF
KDUG 300542Z 3006/0106 35009KT P6SM SCT100
     FM300800 VRB04KT P6SM SKC
     FM301500 17011KT P6SM SKC
     FM301800 21018G28KT P6SM FEW080
     FM302100 22028G38KT P6SM SCT080
     FM010400 23015G25KT P6SM SCT090=

USA.gov is the U.S. government's official web portal to all federal, state and local government web resources and services.